sensor_id;sensor_type;location;lat;lon;timestamp;pressure;altitude;pressure_sealevel;temperature;humidity
17764;BME280;22245;52.832;13.816;2023-03-13T00:02:12;100390.78;;;6.28;89.14
17764;BME280;22245;52.832;13.816;2023-03-13T00:05:35;100386.22;;;6.30;89.15
17764;BME280;22245;52.832;13.816;2023-03-13T00:08:57;100382.72;;;6.30;88.99
17764;BME280;22245;52.832;13.816;2023-03-13T00:12:20;100384.16;;;6.34;88.92
17764;BME280;22245;52.832;13.816;2023-03-13T00:15:41;100378.78;;;6.35;88.98
17764;BME280;22245;52.832;13.816;2023-03-13T00:19:03;100374.09;;;6.39;88.66
17764;BME280;22245;52.832;13.816;2023-03-13T00:22:27;100385.31;;;6.43;88.61
17764;BME280;22245;52.832;13.816;2023-03-13T00:25:55;100376.41;;;6.44;88.62
17764;BME280;22245;52.832;13.816;2023-03-13T00:29:16;100372.72;;;6.46;88.44
17764;BME280;22245;52.832;13.816;2023-03-13T00:32:42;100369.94;;;6.48;88.36
17764;BME280;22245;52.832;13.816;2023-03-13T00:36:05;100364.53;;;6.49;88.29
17764;BME280;22245;52.832;13.816;2023-03-13T00:39:29;100368.66;;;6.54;87.90
17764;BME280;22245;52.832;13.816;2023-03-13T00:42:53;100363.13;;;6.57;88.08
17764;BME280;22245;52.832;13.816;2023-03-13T00:46:17;100364.81;;;6.58;87.78
17764;BME280;22245;52.832;13.816;2023-03-13T00:49:39;100356.75;;;6.59;87.69
17764;BME280;22245;52.832;13.816;2023-03-13T00:53:00;100359.06;;;6.64;87.48
17764;BME280;22245;52.832;13.816;2023-03-13T00:56:24;100351.00;;;6.65;87.78
17764;BME280;22245;52.832;13.816;2023-03-13T00:59:46;100351.13;;;6.64;87.67
17764;BME280;22245;52.832;13.816;2023-03-13T01:03:08;100346.53;;;6.66;87.89
17764;BME280;22245;52.832;13.816;2023-03-13T01:06:32;100344.75;;;6.66;87.58
17764;BME280;22245;52.832;13.816;2023-03-13T01:09:54;100341.88;;;6.70;87.60
17764;BME280;22245;52.832;13.816;2023-03-13T01:13:17;100341.66;;;6.73;87.58
17764;BME280;22245;52.832;13.816;2023-03-13T01:16:39;100331.78;;;6.75;87.54
17764;BME280;22245;52.832;13.816;2023-03-13T01:20:03;100329.97;;;6.75;87.30
17764;BME280;22245;52.832;13.816;2023-03-13T01:23:29;100331.41;;;6.79;87.44
17764;BME280;22245;52.832;13.816;2023-03-13T01:26:51;100333.97;;;6.81;87.46
17764;BME280;22245;52.832;13.816;2023-03-13T01:30:14;100325.91;;;6.83;87.18
17764;BME280;22245;52.832;13.816;2023-03-13T01:33:36;100329.28;;;6.85;87.14
17764;BME280;22245;52.832;13.816;2023-03-13T01:36:58;100315.91;;;6.86;87.13
17764;BME280;22245;52.832;13.816;2023-03-13T01:40:20;100319.28;;;6.88;87.15
17764;BME280;22245;52.832;13.816;2023-03-13T01:43:42;100312.22;;;6.89;87.10
17764;BME280;22245;52.832;13.816;2023-03-13T01:47:06;100314.72;;;6.90;87.20
17764;BME280;22245;52.832;13.816;2023-03-13T01:50:48;100311.25;;;6.90;87.58
17764;BME280;22245;52.832;13.816;2023-03-13T01:54:18;100304.03;;;6.92;87.01
17764;BME280;22245;52.832;13.816;2023-03-13T01:57:46;100298.50;;;6.95;87.17
17764;BME280;22245;52.832;13.816;2023-03-13T02:01:10;100285.97;;;6.97;86.93
17764;BME280;22245;52.832;13.816;2023-03-13T02:04:37;100295.59;;;6.98;87.23
17764;BME280;22245;52.832;13.816;2023-03-13T02:08:02;100279.47;;;7.01;86.98
17764;BME280;22245;52.832;13.816;2023-03-13T02:11:30;100280.19;;;7.03;87.33
17764;BME280;22245;52.832;13.816;2023-03-13T02:14:57;100274.66;;;7.06;87.09
17764;BME280;22245;52.832;13.816;2023-03-13T02:18:20;100271.06;;;7.07;86.76
17764;BME280;22245;52.832;13.816;2023-03-13T02:21:49;100273.59;;;7.09;86.91
17764;BME280;22245;52.832;13.816;2023-03-13T02:25:19;100271.53;;;7.13;86.74
17764;BME280;22245;52.832;13.816;2023-03-13T02:28:48;100261.41;;;7.18;86.72
17764;BME280;22245;52.832;13.816;2023-03-13T02:32:12;100255.03;;;7.20;86.63
17764;BME280;22245;52.832;13.816;2023-03-13T02:35:35;100244.09;;;7.25;86.14
17764;BME280;22245;52.832;13.816;2023-03-13T02:39:03;100236.00;;;7.27;85.63
17764;BME280;22245;52.832;13.816;2023-03-13T02:42:27;100247.22;;;7.30;85.74
17764;BME280;22245;52.832;13.816;2023-03-13T02:46:05;100233.84;;;7.32;85.41
17764;BME280;22245;52.832;13.816;2023-03-13T02:49:31;100233.59;;;7.35;85.54
17764;BME280;22245;52.832;13.816;2023-03-13T02:52:54;100222.03;;;7.36;85.15
17764;BME280;22245;52.832;13.816;2023-03-13T02:56:21;100233.47;;;7.36;84.56
17764;BME280;22245;52.832;13.816;2023-03-13T02:59:45;100220.34;;;7.35;84.92
17764;BME280;22245;52.832;13.816;2023-03-13T03:03:09;100220.47;;;7.33;85.07
17764;BME280;22245;52.832;13.816;2023-03-13T03:06:30;100213.50;;;7.32;84.55
17764;BME280;22245;52.832;13.816;2023-03-13T03:09:54;100209.16;;;7.31;84.26
17764;BME280;22245;52.832;13.816;2023-03-13T03:13:16;100203.88;;;7.31;84.57
17764;BME280;22245;52.832;13.816;2023-03-13T03:16:38;100198.56;;;7.31;84.51
17764;BME280;22245;52.832;13.816;2023-03-13T03:20:03;100204.69;;;7.32;84.63
17764;BME280;22245;52.832;13.816;2023-03-13T03:23:27;100193.28;;;7.31;84.05
17764;BME280;22245;52.832;13.816;2023-03-13T03:26:49;100194.25;;;7.30;84.50
17764;BME280;22245;52.832;13.816;2023-03-13T03:30:25;100195.06;;;7.31;84.42
17764;BME280;22245;52.832;13.816;2023-03-13T03:33:47;100181.81;;;7.31;84.08
17764;BME280;22245;52.832;13.816;2023-03-13T03:37:12;100185.31;;;7.31;84.27
17764;BME280;22245;52.832;13.816;2023-03-13T03:40:34;100180.84;;;7.32;84.36
17764;BME280;22245;52.832;13.816;2023-03-13T03:43:56;100171.22;;;7.31;84.25
17764;BME280;22245;52.832;13.816;2023-03-13T03:47:24;100178.09;;;7.33;84.52
17764;BME280;22245;52.832;13.816;2023-03-13T03:50:46;100172.09;;;7.31;84.48
17764;BME280;22245;52.832;13.816;2023-03-13T03:54:10;100163.03;;;7.34;84.50
17764;BME280;22245;52.832;13.816;2023-03-13T03:57:32;100153.28;;;7.34;84.94
17764;BME280;22245;52.832;13.816;2023-03-13T04:00:55;100154.84;;;7.37;84.52
17764;BME280;22245;52.832;13.816;2023-03-13T04:04:18;100155.69;;;7.37;84.72
17764;BME280;22245;52.832;13.816;2023-03-13T04:07:44;100150.13;;;7.41;84.97
17764;BME280;22245;52.832;13.816;2023-03-13T04:11:08;100143.03;;;7.41;84.63
17764;BME280;22245;52.832;13.816;2023-03-13T04:14:33;100141.09;;;7.43;85.33
17764;BME280;22245;52.832;13.816;2023-03-13T04:17:57;100140.00;;;7.46;84.49
17764;BME280;22245;52.832;13.816;2023-03-13T04:21:19;100124.81;;;7.48;85.28
17764;BME280;22245;52.832;13.816;2023-03-13T04:24:52;100121.19;;;7.49;85.53
17764;BME280;22245;52.832;13.816;2023-03-13T04:28:16;100122.88;;;7.50;85.42
17764;BME280;22245;52.832;13.816;2023-03-13T04:31:38;100110.34;;;7.52;85.64
17764;BME280;22245;52.832;13.816;2023-03-13T04:35:26;100102.28;;;7.53;85.57
17764;BME280;22245;52.832;13.816;2023-03-13T04:39:06;100093.38;;;7.55;85.80
17764;BME280;22245;52.832;13.816;2023-03-13T04:42:46;100087.81;;;7.58;85.79
17764;BME280;22245;52.832;13.816;2023-03-13T04:46:32;100087.69;;;7.59;85.52
17764;BME280;22245;52.832;13.816;2023-03-13T04:50:19;100074.44;;;7.59;85.75
17764;BME280;22245;52.832;13.816;2023-03-13T04:53:53;100074.19;;;7.62;86.03
17764;BME280;22245;52.832;13.816;2023-03-13T04:57:35;100064.28;;;7.64;85.93
17764;BME280;22245;52.832;13.816;2023-03-13T05:01:16;100055.47;;;7.64;85.93
17764;BME280;22245;52.832;13.816;2023-03-13T05:04:49;100051.03;;;7.64;85.64
17764;BME280;22245;52.832;13.816;2023-03-13T05:08:30;100040.19;;;7.67;86.15
17764;BME280;22245;52.832;13.816;2023-03-13T05:12:05;100044.50;;;7.68;85.99
17764;BME280;22245;52.832;13.816;2023-03-13T05:15:45;100028.59;;;7.68;86.20
17764;BME280;22245;52.832;13.816;2023-03-13T05:19:27;100020.66;;;7.68;86.00
17764;BME280;22245;52.832;13.816;2023-03-13T05:23:16;100020.50;;;7.70;86.41
17764;BME280;22245;52.832;13.816;2023-03-13T05:26:38;100007.97;;;7.72;86.38
17764;BME280;22245;52.832;13.816;2023-03-13T05:30:22;99988.44;;;7.73;86.43
17764;BME280;22245;52.832;13.816;2023-03-13T05:34:07;99993.63;;;7.75;86.69
17764;BME280;22245;52.832;13.816;2023-03-13T05:37:55;99978.69;;;7.74;86.39
17764;BME280;22245;52.832;13.816;2023-03-13T05:41:53;99982.16;;;7.74;86.53
17764;BME280;22245;52.832;13.816;2023-03-13T05:45:35;99972.25;;;7.76;86.57
17764;BME280;22245;52.832;13.816;2023-03-13T05:49:05;99971.31;;;7.77;86.57
17764;BME280;22245;52.832;13.816;2023-03-13T05:52:56;99954.56;;;7.77;86.58
17764;BME280;22245;52.832;13.816;2023-03-13T05:56:41;99955.41;;;7.77;86.69
17764;BME280;22245;52.832;13.816;2023-03-13T06:00:25;99942.56;;;7.73;86.32
17764;BME280;22245;52.832;13.816;2023-03-13T06:04:09;99944.94;;;7.76;86.82
17764;BME280;22245;52.832;13.816;2023-03-13T06:07:32;99945.63;;;7.78;86.97
17764;BME280;22245;52.832;13.816;2023-03-13T06:10:58;99935.03;;;7.78;86.84
17764;BME280;22245;52.832;13.816;2023-03-13T06:14:20;99932.13;;;7.81;86.53
17764;BME280;22245;52.832;13.816;2023-03-13T06:18:02;99927.53;;;7.83;86.32
17764;BME280;22245;52.832;13.816;2023-03-13T06:21:24;99917.78;;;7.84;86.73
17764;BME280;22245;52.832;13.816;2023-03-13T06:24:45;99919.44;;;7.85;86.80
17764;BME280;22245;52.832;13.816;2023-03-13T06:28:09;99908.69;;;7.86;86.95
17764;BME280;22245;52.832;13.816;2023-03-13T06:31:31;99901.44;;;7.88;86.89
17764;BME280;22245;52.832;13.816;2023-03-13T06:34:54;99894.19;;;7.90;86.70
17764;BME280;22245;52.832;13.816;2023-03-13T06:38:16;99883.59;;;7.90;87.42
17764;BME280;22245;52.832;13.816;2023-03-13T06:41:38;99882.63;;;7.91;87.14
17764;BME280;22245;52.832;13.816;2023-03-13T06:45:00;99876.22;;;7.94;87.15
17764;BME280;22245;52.832;13.816;2023-03-13T06:48:23;99868.16;;;7.95;87.55
17764;BME280;22245;52.832;13.816;2023-03-13T06:51:47;99866.19;;;7.97;87.44
17764;BME280;22245;52.832;13.816;2023-03-13T06:55:09;99860.75;;;7.99;87.58
17764;BME280;22245;52.832;13.816;2023-03-13T06:58:32;99851.81;;;8.00;87.61
17764;BME280;22245;52.832;13.816;2023-03-13T07:01:54;99842.75;;;8.03;88.08
17764;BME280;22245;52.832;13.816;2023-03-13T07:05:15;99838.00;;;8.06;87.42
17764;BME280;22245;52.832;13.816;2023-03-13T07:08:39;99826.41;;;8.07;87.72
17764;BME280;22245;52.832;13.816;2023-03-13T07:12:00;99817.34;;;8.10;87.89
17764;BME280;22245;52.832;13.816;2023-03-13T07:15:22;99812.75;;;8.12;88.02
17764;BME280;22245;52.832;13.816;2023-03-13T07:18:44;99800.88;;;8.16;88.08
17764;BME280;22245;52.832;13.816;2023-03-13T07:22:06;99796.16;;;8.20;88.13
17764;BME280;22245;52.832;13.816;2023-03-13T07:25:29;99796.97;;;8.20;88.15
17764;BME280;22245;52.832;13.816;2023-03-13T07:28:51;99793.34;;;8.21;88.21
17764;BME280;22245;52.832;13.816;2023-03-13T07:32:13;99780.50;;;8.26;88.44
17764;BME280;22245;52.832;13.816;2023-03-13T07:35:34;99782.03;;;8.29;88.30
17764;BME280;22245;52.832;13.816;2023-03-13T07:38:58;99790.00;;;8.29;88.45
17764;BME280;22245;52.832;13.816;2023-03-13T07:42:21;99798.66;;;8.31;88.36
17764;BME280;22245;52.832;13.816;2023-03-13T07:45:52;99795.84;;;8.33;88.55
17764;BME280;22245;52.832;13.816;2023-03-13T07:49:15;99785.09;;;8.34;88.43
17764;BME280;22245;52.832;13.816;2023-03-13T07:52:36;99771.72;;;8.36;88.69
17764;BME280;22245;52.832;13.816;2023-03-13T07:56:00;99752.00;;;8.38;88.92
17764;BME280;22245;52.832;13.816;2023-03-13T07:59:23;99740.81;;;8.45;88.94
17764;BME280;22245;52.832;13.816;2023-03-13T08:02:45;99728.25;;;8.47;88.91
17764;BME280;22245;52.832;13.816;2023-03-13T08:06:09;99718.22;;;8.50;88.64
17764;BME280;22245;52.832;13.816;2023-03-13T08:09:31;99710.13;;;8.52;88.62
17764;BME280;22245;52.832;13.816;2023-03-13T08:12:53;99703.69;;;8.54;89.37
17764;BME280;22245;52.832;13.816;2023-03-13T08:16:18;99698.09;;;8.58;89.28
17764;BME280;22245;52.832;13.816;2023-03-13T08:19:40;99689.84;;;8.61;88.88
17764;BME280;22245;52.832;13.816;2023-03-13T08:23:02;99696.53;;;8.65;88.94
17764;BME280;22245;52.832;13.816;2023-03-13T08:26:26;99687.47;;;8.67;89.13
17764;BME280;22245;52.832;13.816;2023-03-13T08:29:48;99670.56;;;8.68;89.41
17764;BME280;22245;52.832;13.816;2023-03-13T08:33:11;99669.56;;;8.69;89.84
17764;BME280;22245;52.832;13.816;2023-03-13T08:36:34;99661.19;;;8.74;90.07
17764;BME280;22245;52.832;13.816;2023-03-13T08:39:56;99656.56;;;8.76;90.05
17764;BME280;22245;52.832;13.816;2023-03-13T08:43:18;99652.91;;;8.77;90.26
17764;BME280;22245;52.832;13.816;2023-03-13T08:46:40;99660.59;;;8.80;90.62
17764;BME280;22245;52.832;13.816;2023-03-13T08:50:05;99646.16;;;8.83;90.57
17764;BME280;22245;52.832;13.816;2023-03-13T08:53:27;99632.75;;;8.85;90.81
17764;BME280;22245;52.832;13.816;2023-03-13T08:56:49;99627.44;;;8.85;90.90
17764;BME280;22245;52.832;13.816;2023-03-13T09:00:12;99636.09;;;8.87;91.24
17764;BME280;22245;52.832;13.816;2023-03-13T09:03:34;99630.78;;;8.87;91.84
17764;BME280;22245;52.832;13.816;2023-03-13T09:06:58;99624.50;;;8.88;91.66
17764;BME280;22245;52.832;13.816;2023-03-13T09:10:20;99618.88;;;8.91;91.82
17764;BME280;22245;52.832;13.816;2023-03-13T09:13:44;99612.22;;;8.87;92.17
17764;BME280;22245;52.832;13.816;2023-03-13T09:17:06;99608.28;;;8.91;92.23
17764;BME280;22245;52.832;13.816;2023-03-13T09:20:28;99605.47;;;8.92;91.96
17764;BME280;22245;52.832;13.816;2023-03-13T09:23:51;99585.75;;;8.95;92.33
17764;BME280;22245;52.832;13.816;2023-03-13T09:27:13;99591.44;;;9.00;92.31
17764;BME280;22245;52.832;13.816;2023-03-13T09:30:35;99585.81;;;9.03;92.07
17764;BME280;22245;52.832;13.816;2023-03-13T09:33:58;99595.63;;;9.03;92.34
17764;BME280;22245;52.832;13.816;2023-03-13T09:37:20;99584.69;;;9.06;92.49
17764;BME280;22245;52.832;13.816;2023-03-13T09:40:45;99591.00;;;9.05;92.96
17764;BME280;22245;52.832;13.816;2023-03-13T09:44:24;99575.59;;;9.08;92.80
17764;BME280;22245;52.832;13.816;2023-03-13T09:47:51;99575.00;;;9.15;92.71
17764;BME280;22245;52.832;13.816;2023-03-13T09:51:16;99584.66;;;9.16;92.83
17764;BME280;22245;52.832;13.816;2023-03-13T10:13:48;99566.06;;;9.34;94.84
17764;BME280;22245;52.832;13.816;2023-03-13T10:17:24;99546.16;;;9.38;94.89
17764;BME280;22245;52.832;13.816;2023-03-13T10:20:52;99548.66;;;9.39;94.48
17764;BME280;22245;52.832;13.816;2023-03-13T10:24:25;99541.03;;;9.45;94.04
17764;BME280;22245;52.832;13.816;2023-03-13T10:31:36;99549.78;;;9.55;94.09
17764;BME280;22245;52.832;13.816;2023-03-13T10:34:59;99548.50;;;9.59;94.16
17764;BME280;22245;52.832;13.816;2023-03-13T10:38:22;99520.75;;;9.62;94.14
17764;BME280;22245;52.832;13.816;2023-03-13T10:41:45;99528.41;;;9.65;93.95
17764;BME280;22245;52.832;13.816;2023-03-13T10:45:14;99522.81;;;9.68;94.20
17764;BME280;22245;52.832;13.816;2023-03-13T10:57:35;99522.28;;;9.91;95.13
17764;BME280;22245;52.832;13.816;2023-03-13T11:03:04;99519.50;;;10.01;95.36
17764;BME280;22245;52.832;13.816;2023-03-13T11:06:29;99513.56;;;10.07;95.22
17764;BME280;22245;52.832;13.816;2023-03-13T11:09:56;99488.81;;;10.14;94.92
17764;BME280;22245;52.832;13.816;2023-03-13T11:13:31;99497.69;;;10.23;94.58
17764;BME280;22245;52.832;13.816;2023-03-13T11:17:02;99488.06;;;10.31;94.11
17764;BME280;22245;52.832;13.816;2023-03-13T11:20:27;99488.91;;;10.39;94.66
17764;BME280;22245;52.832;13.816;2023-03-13T11:23:55;99496.81;;;10.49;95.32
17764;BME280;22245;52.832;13.816;2023-03-13T11:27:25;99468.53;;;10.56;94.39
17764;BME280;22245;52.832;13.816;2023-03-13T11:30:55;99481.38;;;10.69;93.68
17764;BME280;22245;52.832;13.816;2023-03-13T11:34:21;99473.41;;;10.78;94.33
17764;BME280;22245;52.832;13.816;2023-03-13T11:37:50;99456.47;;;10.87;94.04
17764;BME280;22245;52.832;13.816;2023-03-13T11:41:24;99471.59;;;10.95;92.55
17764;BME280;22245;52.832;13.816;2023-03-13T11:44:55;99468.63;;;11.06;92.33
17764;BME280;22245;52.832;13.816;2023-03-13T11:48:32;99466.44;;;11.10;90.80
17764;BME280;22245;52.832;13.816;2023-03-13T11:52:07;99440.13;;;11.15;91.56
17764;BME280;22245;52.832;13.816;2023-03-13T11:55:39;99452.81;;;11.21;90.78
17764;BME280;22245;52.832;13.816;2023-03-13T11:59:12;99457.47;;;11.27;90.76
17764;BME280;22245;52.832;13.816;2023-03-13T12:02:40;99453.78;;;11.37;89.24
17764;BME280;22245;52.832;13.816;2023-03-13T12:06:16;99459.78;;;11.47;89.35
17764;BME280;22245;52.832;13.816;2023-03-13T12:09:52;99440.94;;;11.57;89.28
17764;BME280;22245;52.832;13.816;2023-03-13T12:13:20;99450.91;;;11.63;89.20
17764;BME280;22245;52.832;13.816;2023-03-13T12:16:46;99432.06;;;11.73;87.71
17764;BME280;22245;52.832;13.816;2023-03-13T12:20:14;99433.03;;;11.80;87.24
17764;BME280;22245;52.832;13.816;2023-03-13T12:23:44;99437.53;;;11.88;87.04
17764;BME280;22245;52.832;13.816;2023-03-13T12:27:12;99419.16;;;11.93;87.20
17764;BME280;22245;52.832;13.816;2023-03-13T12:30:39;99437.13;;;11.99;87.13
17764;BME280;22245;52.832;13.816;2023-03-13T12:34:12;99430.97;;;12.07;86.99
17764;BME280;22245;52.832;13.816;2023-03-13T12:37:39;99423.94;;;12.14;86.68
17764;BME280;22245;52.832;13.816;2023-03-13T12:41:10;99418.41;;;12.24;85.95
17764;BME280;22245;52.832;13.816;2023-03-13T12:44:34;99424.84;;;12.30;85.32
17764;BME280;22245;52.832;13.816;2023-03-13T12:48:30;99429.50;;;12.36;84.97
17764;BME280;22245;52.832;13.816;2023-03-13T12:52:13;99426.97;;;12.43;84.00
17764;BME280;22245;52.832;13.816;2023-03-13T12:56:04;99420.25;;;12.47;83.62
17764;BME280;22245;52.832;13.816;2023-03-13T12:59:32;99415.91;;;12.54;83.96
17764;BME280;22245;52.832;13.816;2023-03-13T13:03:07;99411.50;;;12.62;83.69
17764;BME280;22245;52.832;13.816;2023-03-13T13:06:50;99395.41;;;12.70;83.43
17764;BME280;22245;52.832;13.816;2023-03-13T13:10:17;99396.34;;;12.77;82.73
17764;BME280;22245;52.832;13.816;2023-03-13T13:13:40;99390.59;;;12.88;82.70
17764;BME280;22245;52.832;13.816;2023-03-13T13:17:14;99381.50;;;12.98;82.78
17764;BME280;22245;52.832;13.816;2023-03-13T13:20:43;99377.91;;;13.06;81.61
17764;BME280;22245;52.832;13.816;2023-03-13T13:28:32;99379.22;;;13.25;80.85
17764;BME280;22245;52.832;13.816;2023-03-13T13:31:55;99359.06;;;13.37;79.30
17764;BME280;22245;52.832;13.816;2023-03-13T13:35:27;99361.31;;;13.49;80.11
17764;BME280;22245;52.832;13.816;2023-03-13T13:38:50;99356.13;;;13.62;79.26
17764;BME280;22245;52.832;13.816;2023-03-13T13:42:48;99352.00;;;13.74;78.69
17764;BME280;22245;52.832;13.816;2023-03-13T13:46:22;99352.34;;;13.86;78.32
17764;BME280;22245;52.832;13.816;2023-03-13T13:49:57;99348.28;;;13.91;76.27
17764;BME280;22245;52.832;13.816;2023-03-13T13:53:29;99366.06;;;13.98;77.09
17764;BME280;22245;52.832;13.816;2023-03-13T13:56:53;99345.38;;;14.07;75.38
17764;BME280;22245;52.832;13.816;2023-03-13T14:00:19;99344.81;;;14.12;74.69
17764;BME280;22245;52.832;13.816;2023-03-13T14:03:43;99348.41;;;14.19;74.77
17764;BME280;22245;52.832;13.816;2023-03-13T14:07:05;99351.78;;;14.28;74.34
17764;BME280;22245;52.832;13.816;2023-03-13T14:10:37;99354.72;;;14.33;73.43
17764;BME280;22245;52.832;13.816;2023-03-13T14:14:12;99360.72;;;14.35;72.67
17764;BME280;22245;52.832;13.816;2023-03-13T14:17:39;99343.06;;;14.41;72.38
17764;BME280;22245;52.832;13.816;2023-03-13T14:21:03;99348.69;;;14.46;71.70
17764;BME280;22245;52.832;13.816;2023-03-13T14:24:32;99321.94;;;14.53;71.37
17764;BME280;22245;52.832;13.816;2023-03-13T14:27:54;99326.56;;;14.59;71.27
17764;BME280;22245;52.832;13.816;2023-03-13T14:31:24;99330.06;;;14.59;70.78
17764;BME280;22245;52.832;13.816;2023-03-13T14:34:47;99321.84;;;14.61;70.48
17764;BME280;22245;52.832;13.816;2023-03-13T14:38:16;99322.91;;;14.67;70.04
17764;BME280;22245;52.832;13.816;2023-03-13T14:41:42;99318.84;;;14.71;70.16
17764;BME280;22245;52.832;13.816;2023-03-13T14:45:12;99317.06;;;14.78;69.86
17764;BME280;22245;52.832;13.816;2023-03-13T14:48:33;99309.91;;;14.85;69.21
17764;BME280;22245;52.832;13.816;2023-03-13T14:51:58;99318.75;;;14.86;69.75
17764;BME280;22245;52.832;13.816;2023-03-13T14:55:28;99309.13;;;14.92;69.84
17764;BME280;22245;52.832;13.816;2023-03-13T14:58:51;99302.56;;;15.01;69.37
17764;BME280;22245;52.832;13.816;2023-03-13T15:02:18;99298.28;;;15.07;68.14
17764;BME280;22245;52.832;13.816;2023-03-13T15:05:40;99302.47;;;15.16;68.18
17764;BME280;22245;52.832;13.816;2023-03-13T15:09:17;99302.91;;;15.19;68.31
17764;BME280;22245;52.832;13.816;2023-03-13T15:12:43;99299.84;;;15.23;68.04
17764;BME280;22245;52.832;13.816;2023-03-13T15:16:13;99298.41;;;15.27;67.10
17764;BME280;22245;52.832;13.816;2023-03-13T15:19:35;99290.78;;;15.30;67.77
17764;BME280;22245;52.832;13.816;2023-03-13T15:22:57;99302.81;;;15.34;67.09
17764;BME280;22245;52.832;13.816;2023-03-13T15:26:19;99280.31;;;15.36;66.45
17764;BME280;22245;52.832;13.816;2023-03-13T15:29:42;99288.34;;;15.36;67.05
17764;BME280;22245;52.832;13.816;2023-03-13T15:33:03;99283.44;;;15.46;67.37
17764;BME280;22245;52.832;13.816;2023-03-13T15:36:26;99277.72;;;15.56;67.03
17764;BME280;22245;52.832;13.816;2023-03-13T15:39:48;99274.47;;;15.67;66.87
17764;BME280;22245;52.832;13.816;2023-03-13T15:43:10;99280.66;;;15.74;65.94
17764;BME280;22245;52.832;13.816;2023-03-13T15:46:33;99273.06;;;15.85;65.68
17764;BME280;22245;52.832;13.816;2023-03-13T15:49:55;99268.19;;;15.95;65.05
17764;BME280;22245;52.832;13.816;2023-03-13T15:53:18;99274.38;;;15.96;65.22
17764;BME280;22245;52.832;13.816;2023-03-13T15:56:40;99264.44;;;15.89;65.87
17764;BME280;22245;52.832;13.816;2023-03-13T16:00:02;99262.31;;;15.85;65.95
17764;BME280;22245;52.832;13.816;2023-03-13T16:03:27;99267.28;;;15.81;65.77
17764;BME280;22245;52.832;13.816;2023-03-13T16:06:49;99246.00;;;15.73;66.39
17764;BME280;22245;52.832;13.816;2023-03-13T16:10:15;99251.97;;;15.68;66.78
17764;BME280;22245;52.832;13.816;2023-03-13T16:13:37;99251.13;;;15.61;66.70
17764;BME280;22245;52.832;13.816;2023-03-13T16:16:59;99247.59;;;15.60;66.97
17764;BME280;22245;52.832;13.816;2023-03-13T16:20:22;99247.19;;;15.57;66.98
17764;BME280;22245;52.832;13.816;2023-03-13T16:23:46;99256.44;;;15.54;67.46
17764;BME280;22245;52.832;13.816;2023-03-13T16:27:12;99239.91;;;15.44;67.38
17764;BME280;22245;52.832;13.816;2023-03-13T16:30:34;99241.34;;;15.40;67.40
17764;BME280;22245;52.832;13.816;2023-03-13T16:33:57;99237.41;;;15.42;67.76
17764;BME280;22245;52.832;13.816;2023-03-13T16:37:20;99228.91;;;15.32;67.32
17764;BME280;22245;52.832;13.816;2023-03-13T16:40:41;99230.56;;;15.33;67.29
17764;BME280;22245;52.832;13.816;2023-03-13T16:44:03;99209.09;;;15.33;67.66
17764;BME280;22245;52.832;13.816;2023-03-13T16:47:27;99206.59;;;15.31;67.51
17764;BME280;22245;52.832;13.816;2023-03-13T16:50:50;99206.81;;;15.30;67.51
17764;BME280;22245;52.832;13.816;2023-03-13T16:54:13;99196.91;;;15.24;68.17
17764;BME280;22245;52.832;13.816;2023-03-13T16:57:34;99188.00;;;15.23;67.63
17764;BME280;22245;52.832;13.816;2023-03-13T17:00:56;99189.47;;;15.26;67.56
17764;BME280;22245;52.832;13.816;2023-03-13T17:04:25;99190.50;;;15.25;67.87
17764;BME280;22245;52.832;13.816;2023-03-13T17:07:48;99180.59;;;15.25;67.91
17764;BME280;22245;52.832;13.816;2023-03-13T17:11:15;99181.78;;;15.16;68.28
17764;BME280;22245;52.832;13.816;2023-03-13T17:14:38;99176.00;;;15.12;68.48
17764;BME280;22245;52.832;13.816;2023-03-13T17:17:59;99169.19;;;15.10;68.85
17764;BME280;22245;52.832;13.816;2023-03-13T17:21:23;99166.06;;;14.99;69.31
17764;BME280;22245;52.832;13.816;2023-03-13T17:24:45;99173.03;;;14.94;69.16
17764;BME280;22245;52.832;13.816;2023-03-13T17:28:11;99171.56;;;14.84;69.76
17764;BME280;22245;52.832;13.816;2023-03-13T17:31:33;99159.56;;;14.80;69.90
17764;BME280;22245;52.832;13.816;2023-03-13T17:34:58;99162.25;;;14.80;69.90
17764;BME280;22245;52.832;13.816;2023-03-13T17:38:19;99158.28;;;14.76;70.02
17764;BME280;22245;52.832;13.816;2023-03-13T17:41:41;99179.66;;;14.69;70.58
17764;BME280;22245;52.832;13.816;2023-03-13T17:45:05;99183.94;;;14.64;70.22
17764;BME280;22245;52.832;13.816;2023-03-13T17:48:27;99180.66;;;14.61;70.78
17764;BME280;22245;52.832;13.816;2023-03-13T17:51:48;99171.13;;;14.52;70.94
17764;BME280;22245;52.832;13.816;2023-03-13T17:55:10;99169.47;;;14.51;71.21
17764;BME280;22245;52.832;13.816;2023-03-13T17:58:32;99169.47;;;14.51;71.02
17764;BME280;22245;52.832;13.816;2023-03-13T18:01:55;99173.94;;;14.44;71.27
17764;BME280;22245;52.832;13.816;2023-03-13T18:05:17;99170.44;;;14.43;71.70
17764;BME280;22245;52.832;13.816;2023-03-13T18:08:38;99156.63;;;14.40;71.53
17764;BME280;22245;52.832;13.816;2023-03-13T18:12:00;99167.97;;;14.42;71.82
17764;BME280;22245;52.832;13.816;2023-03-13T18:15:23;99151.44;;;14.38;71.98
17764;BME280;22245;52.832;13.816;2023-03-13T18:18:46;99148.31;;;14.35;72.01
17764;BME280;22245;52.832;13.816;2023-03-13T18:22:12;99139.84;;;14.31;72.00
17764;BME280;22245;52.832;13.816;2023-03-13T18:25:34;99150.97;;;14.28;71.88
17764;BME280;22245;52.832;13.816;2023-03-13T18:28:56;99149.09;;;14.28;72.40
17764;BME280;22245;52.832;13.816;2023-03-13T18:32:20;99147.03;;;14.24;72.60
17764;BME280;22245;52.832;13.816;2023-03-13T18:35:43;99140.00;;;14.23;71.93
17764;BME280;22245;52.832;13.816;2023-03-13T18:39:05;99149.44;;;14.18;72.48
17764;BME280;22245;52.832;13.816;2023-03-13T18:42:26;99143.00;;;14.13;72.25